Аэропорт: Сары-Арка. Караганда

ICAO: UAKK

METAR:
2021-01-20 02:30:00
UAKK 200230Z 17005MPS 9999 SCT015 M08/M12 Q1012 R05/810560 NOSIG RMK QFE712/0949
METAR:
2021-01-19 23:03:00
TAF UAKK 192303Z 2000/2024 17007MPS 9999 SCT020 BKN100 TXM04/2006Z TNM17/2001Z TEMPO 2000/2006 18011MPS 3100 -SN DRSN BKN008 BECMG 2006/2008 22008MPS TEMPO 2006/2013 25012MPS 1500 SHSN BLSN SCT007 BKN015CB TEMPO 2018/2024 2000 -SN BR BKN005